Time;durP1;ratioP1;P1;durP2;ratioP2;P2;SDS_P1;SDS_P2;PMS_P1;PMS_P2;Temp;Humidity;BMP_temperature;BMP_pressure;BME280_temperature;BME280_humidity;BME280_pressure;Samples;Min_cycle;Max_cycle;Signal;HPM_P1;HPM_P2
2021/01/20 00:00:51;;;;;;;;;;;7.10;99.90;;;;;;5118318;27;19950;-88
2021/01/20 00:03:17;;;;;;;;;;;7.10;99.90;;;;;;5118450;27;19916;-88
2021/01/20 00:05:45;;;;;;;;;;;7.10;99.90;;;;;;5118616;27;19915;-86
2021/01/20 00:08:14;;;;;;;;;;;7.10;99.90;;;;;;5136032;27;19907;-87
2021/01/20 00:10:46;;;;;;;;;;;7.10;99.90;;;;;;5118407;27;19914;-86
2021/01/20 00:13:18;;;;;;;;;;;7.10;99.90;;;;;;5118705;27;20006;-87
2021/01/20 00:15:46;;;;;;;;;;;7.10;99.90;;;;;;5115544;27;19912;-87
2021/01/20 00:18:15;;;;;;;;;;;7.10;99.90;;;;;;5111608;27;19908;-87
2021/01/20 00:20:47;;;;;;;;;;;7.10;99.90;;;;;;5113766;27;19919;-87
2021/01/20 00:23:18;;;;;;;;;;;7.10;99.90;;;;;;5119143;27;19915;-88
2021/01/20 00:25:47;;;;;;;;;;;7.10;99.90;;;;;;5118109;27;19907;-85
2021/01/20 00:28:18;;;;;;;;;;;7.10;99.90;;;;;;5117278;27;20004;-86
2021/01/20 00:30:45;;;;;;;;;;;7.00;99.90;;;;;;5117140;27;19908;-85
2021/01/20 00:33:19;;;;;;;;;;;6.80;99.90;;;;;;5117094;27;19968;-86
2021/01/20 00:35:53;;;;;;;;;;;6.70;99.90;;;;;;5117750;27;19912;-86
2021/01/20 00:38:22;;;;;;;;;;;6.60;99.90;;;;;;5117319;27;20272;-86
2021/01/20 00:40:53;;;;;;;;;;;6.60;99.90;;;;;;5117502;27;19907;-86
2021/01/20 00:43:19;;;;;;;;;;;6.50;99.90;;;;;;5116897;27;20359;-87
2021/01/20 00:45:45;;;;;;;;;;;6.40;99.90;;;;;;5117488;27;19947;-86
2021/01/20 00:48:14;;;;;;;;;;;6.40;99.90;;;;;;5117023;28;20367;-86
2021/01/20 00:51:00;;;;;;;;;;;6.40;99.90;;;;;;5133562;27;19908;-86
2021/01/20 00:53:30;;;;;;;;;;;6.30;99.90;;;;;;5135527;27;20003;-87
2021/01/20 00:56:06;;;;;;;;;;;6.30;99.90;;;;;;5112501;28;19907;-86
2021/01/20 00:58:37;;;;;;;;;;;6.30;99.90;;;;;;5117297;28;20002;-86
2021/01/20 01:01:09;;;;;;;;;;;6.30;99.90;;;;;;5117305;28;19954;-86
2021/01/20 01:03:42;;;;;;;;;;;6.30;99.90;;;;;;5117271;28;19907;-86
2021/01/20 01:06:11;;;;;;;;;;;6.30;99.90;;;;;;5117288;28;19908;-86
2021/01/20 01:08:44;;;;;;;;;;;6.20;99.90;;;;;;5112578;28;20011;-86
2021/01/20 01:11:10;;;;;;;;;;;6.20;99.90;;;;;;5117104;28;19915;-87
2021/01/20 01:13:38;;;;;;;;;;;6.30;99.90;;;;;;5117603;28;19907;-86
2021/01/20 01:16:07;;;;;;;;;;;6.30;99.90;;;;;;5112550;28;19907;-87
2021/01/20 01:18:41;;;;;;;;;;;6.30;99.90;;;;;;5117027;28;20006;-87
2021/01/20 01:21:13;;;;;;;;;;;6.30;99.90;;;;;;5116517;28;19908;-87
2021/01/20 01:23:44;;;;;;;;;;;6.30;99.90;;;;;;5117785;28;19907;-87
2021/01/20 01:26:21;;;;;;;;;;;6.30;99.90;;;;;;5117061;28;19908;-86
2021/01/20 01:28:57;;;;;;;;;;;6.30;99.90;;;;;;5116102;28;19907;-86
2021/01/20 01:31:23;;;;;;;;;;;6.30;99.90;;;;;;5135485;28;19914;-86
2021/01/20 01:33:55;;;;;;;;;;;6.30;99.90;;;;;;5135266;28;19998;-86
2021/01/20 01:36:24;;;;;;;;;;;6.40;99.90;;;;;;5116639;28;20167;-87
2021/01/20 01:38:51;;;;;;;;;;;6.40;99.90;;;;;;5116721;28;19998;-87
2021/01/20 01:41:20;;;;;;;;;;;6.40;99.90;;;;;;5112225;28;19933;-87
2021/01/20 01:43:52;;;;;;;;;;;6.40;99.90;;;;;;5135087;28;19945;-86
2021/01/20 01:46:27;;;;;;;;;;;6.40;99.90;;;;;;5116648;28;19976;-86
2021/01/20 01:48:55;;;;;;;;;;;6.40;99.90;;;;;;5117169;28;19975;-87
2021/01/20 01:51:27;;;;;;;;;;;6.50;99.90;;;;;;5116688;28;19994;-87
2021/01/20 01:53:56;;;;;;;;;;;6.40;99.90;;;;;;5125854;28;19930;-87
2021/01/20 01:56:25;;;;;;;;;;;6.50;99.90;;;;;;5130046;28;19938;-87
2021/01/20 01:58:52;;;;;;;;;;;6.50;99.90;;;;;;5117326;28;19965;-86
2021/01/20 02:01:27;;;;;;;;;;;6.50;99.90;;;;;;5136602;28;19973;-86
2021/01/20 02:04:12;;;;;;;;;;;6.50;99.90;;;;;;5136672;27;19907;-85
2021/01/20 02:06:44;;;;;;;;;;;6.50;99.90;;;;;;5135526;27;19943;-86
2021/01/20 02:09:15;;;;;;;;;;;6.50;99.90;;;;;;5137751;27;19911;-87
2021/01/20 02:11:41;;;;;;;;;;;6.50;99.90;;;;;;5115930;27;19911;-87
2021/01/20 02:14:31;;;;;;;;;;;6.50;99.90;;;;;;5120433;27;19915;-86
2021/01/20 02:16:59;;;;;;;;;;;6.50;99.90;;;;;;5119926;27;20253;-87
2021/01/20 02:19:42;;;;;;;;;;;6.50;99.90;;;;;;5136546;27;19908;-88
2021/01/20 02:22:16;;;;;;;;;;;6.50;99.90;;;;;;5119773;27;19916;-87
2021/01/20 02:24:52;;;;;;;;;;;6.50;99.90;;;;;;5115794;27;19908;-87
2021/01/20 02:27:27;;;;;;;;;;;6.50;99.90;;;;;;5134102;27;20279;-87
2021/01/20 02:30:07;;;;;;;;;;;6.50;99.90;;;;;;5119130;27;19915;-86
2021/01/20 02:32:39;;;;;;;;;;;6.40;99.90;;;;;;5137333;27;19946;-86
2021/01/20 02:35:11;;;;;;;;;;;6.40;99.90;;;;;;5136599;27;19907;-86
2021/01/20 02:37:37;;;;;;;;;;;6.40;99.90;;;;;;5136457;27;19949;-86
2021/01/20 02:40:09;;;;;;;;;;;6.40;99.90;;;;;;5137612;27;19929;-86
2021/01/20 02:42:45;;;;;;;;;;;6.50;99.90;;;;;;5118913;27;19920;-86
2021/01/20 02:45:18;;;;;;;;;;;6.50;99.90;;;;;;5135698;27;19919;-86
2021/01/20 02:47:48;;;;;;;;;;;6.50;99.90;;;;;;5135283;27;19914;-87
2021/01/20 02:50:17;;;;;;;;;;;6.50;99.90;;;;;;5118423;27;19994;-86
2021/01/20 02:52:53;;;;;;;;;;;6.50;99.90;;;;;;5117390;27;19928;-87
2021/01/20 02:55:29;;;;;;;;;;;6.50;99.90;;;;;;5118023;27;19907;-86
2021/01/20 02:58:04;;;;;;;;;;;6.50;99.90;;;;;;5117936;27;19914;-86
2021/01/20 03:00:31;;;;;;;;;;;6.50;99.90;;;;;;5118045;27;19907;-86
2021/01/20 03:03:03;;;;;;;;;;;6.50;99.90;;;;;;5118158;27;19922;-87
2021/01/20 03:05:29;;;;;;;;;;;6.60;99.90;;;;;;5115057;27;19915;-86
2021/01/20 03:07:56;;;;;;;;;;;6.60;99.90;;;;;;5118093;27;19907;-86
2021/01/20 03:10:42;;;;;;;;;;;6.60;99.90;;;;;;5131221;27;19956;-86
2021/01/20 03:13:12;;;;;;;;;;;6.60;99.90;;;;;;5112957;28;19931;-86
2021/01/20 03:15:42;;;;;;;;;;;6.70;99.90;;;;;;5096736;28;20499;-87
2021/01/20 03:18:08;;;;;;;;;;;6.70;99.90;;;;;;5114870;28;19915;-86
2021/01/20 03:20:37;;;;;;;;;;;6.70;99.90;;;;;;5097512;28;19907;-86
2021/01/20 03:23:12;;;;;;;;;;;6.80;99.90;;;;;;5097368;28;19955;-86
2021/01/20 03:25:48;;;;;;;;;;;6.80;99.90;;;;;;5095114;28;19915;-86
2021/01/20 03:28:14;;;;;;;;;;;6.80;99.90;;;;;;5114572;28;20358;-87
2021/01/20 03:30:45;;;;;;;;;;;6.80;99.90;;;;;;5097257;28;19907;-86
2021/01/20 03:33:16;;;;;;;;;;;6.80;99.90;;;;;;5096939;28;19995;-86
2021/01/20 03:35:48;;;;;;;;;;;6.80;99.90;;;;;;5097307;28;20406;-87
2021/01/20 03:38:25;;;;;;;;;;;6.80;99.90;;;;;;5097355;28;20280;-86
2021/01/20 03:40:51;;;;;;;;;;;6.80;99.90;;;;;;5096556;28;19911;-86
2021/01/20 03:43:20;;;;;;;;;;;6.80;99.90;;;;;;5100511;27;19967;-87
2021/01/20 03:45:45;;;;;;;;;;;6.80;99.90;;;;;;5145244;27;19965;-86
2021/01/20 03:48:17;;;;;;;;;;;6.80;99.90;;;;;;5135704;27;19911;-86
2021/01/20 03:50:48;;;;;;;;;;;6.80;99.90;;;;;;5135717;27;20003;-87
2021/01/20 03:53:19;;;;;;;;;;;6.80;99.90;;;;;;5134962;27;19926;-87
2021/01/20 03:55:47;;;;;;;;;;;6.90;99.90;;;;;;5135694;27;20010;-86
2021/01/20 03:58:16;;;;;;;;;;;6.90;99.90;;;;;;5118099;27;19914;-86
2021/01/20 04:00:49;;;;;;;;;;;6.90;99.90;;;;;;5132176;27;19911;-86
2021/01/20 04:03:19;;;;;;;;;;;6.90;99.90;;;;;;5118123;27;19919;-86
2021/01/20 04:05:47;;;;;;;;;;;7.00;99.90;;;;;;5134668;27;19933;-87
2021/01/20 04:08:19;;;;;;;;;;;7.00;99.90;;;;;;5118031;27;19907;-86
2021/01/20 04:10:50;;;;;;;;;;;7.00;99.90;;;;;;5136028;27;19950;-86
2021/01/20 04:13:21;;;;;;;;;;;7.10;99.90;;;;;;5114774;27;19908;-87
2021/01/20 04:16:08;;;;;;;;;;;7.10;99.90;;;;;;5134410;27;19914;-85
2021/01/20 04:18:39;;;;;;;;;;;7.20;99.90;;;;;;5117980;27;20295;-85
2021/01/20 04:21:07;;;;;;;;;;;7.20;99.90;;;;;;5135483;27;20244;-86
2021/01/20 04:23:45;;;;;;;;;;;7.20;99.90;;;;;;5134628;27;19923;-86
2021/01/20 04:26:17;;;;;;;;;;;7.20;99.90;;;;;;5134914;27;19917;-85
2021/01/20 04:28:43;;;;;;;;;;;7.30;99.90;;;;;;5113327;27;20003;-86
2021/01/20 04:31:11;;;;;;;;;;;7.30;99.90;;;;;;5118537;27;19911;-87
2021/01/20 04:33:43;;;;;;;;;;;7.30;99.90;;;;;;5117883;27;19908;-86
2021/01/20 04:36:17;;;;;;;;;;;7.30;99.90;;;;;;5117643;27;19930;-86
2021/01/20 04:38:48;;;;;;;;;;;7.40;99.90;;;;;;5117782;27;19907;-86
2021/01/20 04:41:17;;;;;;;;;;;7.40;99.90;;;;;;5118395;28;19915;-88
2021/01/20 04:43:43;;;;;;;;;;;7.40;99.90;;;;;;5117892;27;19907;-87
2021/01/20 04:46:09;;;;;;;;;;;7.40;99.90;;;;;;5117641;27;19907;-88
2021/01/20 04:48:38;;;;;;;;;;;7.40;99.90;;;;;;5117815;27;19908;-88
2021/01/20 04:51:07;;;;;;;;;;;7.50;99.90;;;;;;5113456;28;20371;-88
2021/01/20 04:53:41;;;;;;;;;;;7.50;99.90;;;;;;5117513;27;19926;-87
2021/01/20 04:56:14;;;;;;;;;;;7.50;99.90;;;;;;5132904;27;19926;-88
2021/01/20 04:58:43;;;;;;;;;;;7.50;99.90;;;;;;5117862;28;19908;-88
2021/01/20 05:01:09;;;;;;;;;;;7.50;99.90;;;;;;5117614;28;19914;-87
2021/01/20 05:03:49;;;;;;;;;;;7.60;99.90;;;;;;5132535;28;19919;-87
2021/01/20 05:06:17;;;;;;;;;;;7.60;99.90;;;;;;5131887;28;19912;-88
2021/01/20 05:08:46;;;;;;;;;;;7.60;99.90;;;;;;5135832;28;19934;-88
2021/01/20 05:11:15;;;;;;;;;;;7.60;99.90;;;;;;5131685;28;19925;-88
2021/01/20 05:13:51;;;;;;;;;;;7.60;99.90;;;;;;5131358;28;20376;-88
2021/01/20 05:16:24;;;;;;;;;;;7.60;99.90;;;;;;5135098;28;19918;-88
2021/01/20 05:18:56;;;;;;;;;;;7.60;99.90;;;;;;5117262;28;19933;-86
2021/01/20 05:21:31;;;;;;;;;;;7.60;99.90;;;;;;5113004;28;19956;-88
2021/01/20 05:24:15;;;;;;;;;;;7.70;99.90;;;;;;5134445;28;19911;-87
2021/01/20 05:26:47;;;;;;;;;;;7.70;99.90;;;;;;5118382;28;20409;-87
2021/01/20 05:29:16;;;;;;;;;;;7.70;99.90;;;;;;5113891;28;19915;-88
2021/01/20 05:31:47;;;;;;;;;;;7.70;99.90;;;;;;5116850;28;19911;-88
2021/01/20 05:34:28;;;;;;;;;;;7.70;99.90;;;;;;5116952;28;19911;-87
2021/01/20 05:37:10;;;;;;;;;;;7.70;99.90;;;;;;5135245;27;20335;-86
2021/01/20 05:39:37;;;;;;;;;;;7.70;99.90;;;;;;5121360;27;19907;-86
2021/01/20 05:42:10;;;;;;;;;;;7.70;99.90;;;;;;5137497;27;19915;-85
2021/01/20 05:44:39;;;;;;;;;;;7.70;99.90;;;;;;5121329;27;19908;-86
2021/01/20 05:47:12;;;;;;;;;;;7.70;99.90;;;;;;5120996;27;19911;-85
2021/01/20 05:49:41;;;;;;;;;;;7.70;99.90;;;;;;5120373;27;19907;-85
2021/01/20 05:52:25;;;;;;;;;;;7.70;99.90;;;;;;5120597;27;20006;-86
2021/01/20 05:54:53;;;;;;;;;;;7.70;99.90;;;;;;5137717;27;19919;-85
2021/01/20 05:57:28;;;;;;;;;;;7.70;99.90;;;;;;5133983;27;20360;-87
2021/01/20 06:00:14;;;;;;;;;;;7.70;99.90;;;;;;5135249;27;19911;-86
2021/01/20 06:02:44;;;;;;;;;;;7.70;99.90;;;;;;5137575;27;19915;-85
2021/01/20 06:05:12;;;;;;;;;;;7.70;99.90;;;;;;5133537;27;19915;-87
2021/01/20 06:07:41;;;;;;;;;;;7.70;99.90;;;;;;5137492;27;20352;-86
2021/01/20 06:10:10;;;;;;;;;;;7.70;99.90;;;;;;5137245;27;20006;-86
2021/01/20 06:12:35;;;;;;;;;;;7.80;99.90;;;;;;5137185;27;19943;-86
2021/01/20 06:15:06;;;;;;;;;;;7.70;99.90;;;;;;5137435;27;19911;-86
2021/01/20 06:17:39;;;;;;;;;;;7.80;99.90;;;;;;5140172;27;19914;-86
2021/01/20 06:20:08;;;;;;;;;;;7.80;99.90;;;;;;5158821;27;19975;-86
2021/01/20 06:22:54;;;;;;;;;;;7.80;99.90;;;;;;5158074;27;19919;-86
2021/01/20 06:25:26;;;;;;;;;;;7.80;99.90;;;;;;5157300;27;19907;-87
2021/01/20 06:27:57;;;;;;;;;;;7.80;99.90;;;;;;5158851;27;19911;-88
2021/01/20 06:30:36;;;;;;;;;;;7.80;99.90;;;;;;5156877;27;20324;-86
2021/01/20 06:33:10;;;;;;;;;;;7.80;99.90;;;;;;5157920;27;20532;-86
2021/01/20 06:35:44;;;;;;;;;;;7.90;99.90;;;;;;5153984;27;19915;-86
2021/01/20 06:38:28;;;;;;;;;;;7.80;99.90;;;;;;5159425;27;19907;-86
2021/01/20 06:41:07;;;;;;;;;;;7.90;99.90;;;;;;5157661;27;19913;-87
2021/01/20 06:43:42;;;;;;;;;;;7.90;99.90;;;;;;5141213;27;19966;-86
2021/01/20 06:46:28;;;;;;;;;;;7.90;99.90;;;;;;5158621;27;19954;-83
2021/01/20 06:49:02;;;;;;;;;;;7.90;99.90;;;;;;5156287;27;19907;-85
2021/01/20 06:51:36;;;;;;;;;;;7.90;99.90;;;;;;5156806;27;19990;-85
2021/01/20 06:54:12;;;;;;;;;;;7.90;99.90;;;;;;5172462;27;20375;-86
2021/01/20 06:56:37;;;;;;;;;;;7.90;99.90;;;;;;5160634;27;20002;-86
2021/01/20 06:59:12;;;;;;;;;;;7.90;99.90;;;;;;5160076;27;19950;-85
2021/01/20 07:01:43;;;;;;;;;;;7.90;99.90;;;;;;5160768;27;19914;-85
2021/01/20 07:04:29;;;;;;;;;;;8.00;99.90;;;;;;5174630;27;19907;-85
2021/01/20 07:06:57;;;;;;;;;;;7.90;99.90;;;;;;5159596;27;20670;-87
2021/01/20 07:09:47;;;;;;;;;;;8.00;99.90;;;;;;5161488;27;19914;-86
2021/01/20 07:12:22;;;;;;;;;;;8.00;99.90;;;;;;5159987;27;19907;-86
2021/01/20 07:15:04;;;;;;;;;;;8.00;99.90;;;;;;5159965;27;19907;-85
2021/01/20 07:17:36;;;;;;;;;;;8.00;99.90;;;;;;5159955;27;19968;-86
2021/01/20 07:20:09;;;;;;;;;;;8.00;99.90;;;;;;5178830;27;20435;-86
2021/01/20 07:22:42;;;;;;;;;;;8.00;99.90;;;;;;5155186;27;20367;-86
2021/01/20 07:25:18;;;;;;;;;;;8.00;99.90;;;;;;5160452;27;19980;-85
2021/01/20 07:27:49;;;;;;;;;;;8.10;99.90;;;;;;5159435;27;20420;-85
2021/01/20 07:30:18;;;;;;;;;;;8.00;99.90;;;;;;5172216;27;19914;-86
2021/01/20 07:32:44;;;;;;;;;;;8.10;99.90;;;;;;5159767;27;19907;-86
2021/01/20 07:35:21;;;;;;;;;;;8.00;99.90;;;;;;5177808;27;20414;-85
2021/01/20 07:38:07;;;;;;;;;;;8.10;99.90;;;;;;5178371;27;19907;-86
2021/01/20 07:40:33;;;;;;;;;;;8.10;99.90;;;;;;5157980;27;19914;-86
2021/01/20 07:43:03;;;;;;;;;;;8.10;99.90;;;;;;5159980;27;19919;-86
2021/01/20 07:45:39;;;;;;;;;;;8.20;99.90;;;;;;5175806;27;19922;-86
2021/01/20 07:48:14;;;;;;;;;;;8.20;99.90;;;;;;5160017;27;19914;-87
2021/01/20 07:50:43;;;;;;;;;;;8.20;99.90;;;;;;5178493;27;20306;-86
2021/01/20 07:53:10;;;;;;;;;;;8.20;99.90;;;;;;5159760;27;19925;-87
2021/01/20 07:55:38;;;;;;;;;;;8.20;99.90;;;;;;5159823;27;19906;-87
2021/01/20 07:58:06;;;;;;;;;;;8.20;99.90;;;;;;5178956;27;20032;-87
2021/01/20 08:00:41;;;;;;;;;;;8.20;99.90;;;;;;5154731;27;19935;-87
2021/01/20 08:03:10;;;;;;;;;;;8.20;99.90;;;;;;5159318;27;19964;-86
2021/01/20 08:05:41;;;;;;;;;;;8.20;99.90;;;;;;5159821;27;20320;-86
2021/01/20 08:08:14;;;;;;;;;;;8.20;99.90;;;;;;5159404;27;19907;-87
2021/01/20 08:10:55;;;;;;;;;;;8.20;99.90;;;;;;5161392;27;19911;-87
2021/01/20 08:13:24;;;;;;;;;;;8.20;99.90;;;;;;5158872;27;19910;-87
2021/01/20 08:16:02;;;;;;;;;;;8.20;99.90;;;;;;5160084;27;20269;-87
2021/01/20 08:18:34;;;;;;;;;;;8.20;99.90;;;;;;5160116;27;20255;-88
2021/01/20 08:21:06;;;;;;;;;;;8.30;99.90;;;;;;5173153;27;19942;-86
2021/01/20 08:23:37;;;;;;;;;;;8.30;99.90;;;;;;5178057;27;19919;-87
2021/01/20 08:26:09;;;;;;;;;;;8.30;99.90;;;;;;5159098;27;20362;-87
2021/01/20 08:28:38;;;;;;;;;;;8.30;99.90;;;;;;5178157;27;19953;-87
2021/01/20 08:31:35;;;;;;;;;;;8.40;99.90;;;;;;5159869;27;19907;-87
2021/01/20 08:34:19;;;;;;;;;;;8.40;99.90;;;;;;5128509;27;19965;-87
2021/01/20 08:36:57;;;;;;;;;;;8.40;99.90;;;;;;5159887;27;19906;-87
2021/01/20 08:39:24;;;;;;;;;;;8.40;99.90;;;;;;5076482;28;19908;-86
2021/01/20 08:42:08;;;;;;;;;;;8.40;99.90;;;;;;5069993;28;20412;-87
2021/01/20 08:44:33;;;;;;;;;;;8.40;99.90;;;;;;5113803;28;19907;-86
2021/01/20 08:47:11;;;;;;;;;;;8.40;99.90;;;;;;5096089;28;19918;-87
2021/01/20 08:49:39;;;;;;;;;;;8.40;99.90;;;;;;5094866;28;19908;-86
2021/01/20 08:52:15;;;;;;;;;;;8.40;99.90;;;;;;5111170;28;19946;-86
2021/01/20 08:54:48;;;;;;;;;;;8.40;99.90;;;;;;5098266;28;19919;-87
2021/01/20 08:57:23;;;;;;;;;;;8.40;99.90;;;;;;5109369;28;19919;-87
2021/01/20 08:59:55;;;;;;;;;;;8.40;99.90;;;;;;5112907;28;19911;-86
2021/01/20 09:02:21;;;;;;;;;;;8.40;99.90;;;;;;5091158;28;19942;-86
2021/01/20 09:05:01;;;;;;;;;;;8.40;99.90;;;;;;5096329;28;19908;-86
2021/01/20 09:07:36;;;;;;;;;;;8.50;99.90;;;;;;5096244;28;20284;-87
2021/01/20 09:10:13;;;;;;;;;;;8.60;99.90;;;;;;5111116;27;19911;-86
2021/01/20 09:12:39;;;;;;;;;;;8.60;99.90;;;;;;5158334;27;19956;-87
2021/01/20 09:15:13;;;;;;;;;;;8.60;99.90;;;;;;5142195;27;20339;-86
2021/01/20 09:17:48;;;;;;;;;;;8.60;99.90;;;;;;5141914;27;19911;-87
2021/01/20 09:20:13;;;;;;;;;;;8.60;99.90;;;;;;5141459;27;19914;-87
2021/01/20 09:22:42;;;;;;;;;;;8.70;99.90;;;;;;5141742;27;19966;-87
2021/01/20 09:25:08;;;;;;;;;;;8.60;99.90;;;;;;5142531;27;19917;-85
2021/01/20 09:27:36;;;;;;;;;;;8.60;99.90;;;;;;5157884;27;19994;-86
2021/01/20 09:30:11;;;;;;;;;;;8.70;99.90;;;;;;5141300;27;20439;-86
2021/01/20 09:32:40;;;;;;;;;;;8.70;99.90;;;;;;5159529;27;20356;-87
2021/01/20 09:35:15;;;;;;;;;;;8.80;99.90;;;;;;5141521;27;20306;-86
2021/01/20 09:37:41;;;;;;;;;;;8.90;99.90;;;;;;5141873;27;19966;-86
2021/01/20 09:40:14;;;;;;;;;;;9.00;99.90;;;;;;5141417;27;20382;-85
2021/01/20 09:42:43;;;;;;;;;;;9.10;99.90;;;;;;5141510;27;20048;-85
2021/01/20 09:45:10;;;;;;;;;;;9.20;99.90;;;;;;5141112;27;19914;-87
2021/01/20 09:47:42;;;;;;;;;;;9.20;99.90;;;;;;5141688;27;20422;-87
2021/01/20 09:50:11;;;;;;;;;;;9.30;99.90;;;;;;5140874;27;19907;-86
2021/01/20 09:52:37;;;;;;;;;;;9.40;99.90;;;;;;5141625;27;20290;-86
2021/01/20 09:55:11;;;;;;;;;;;9.40;99.90;;;;;;5116216;28;20018;-86
2021/01/20 09:57:40;;;;;;;;;;;9.50;99.90;;;;;;5116414;27;19918;-88
2021/01/20 10:00:06;;;;;;;;;;;9.60;99.90;;;;;;5120128;27;19946;-87
2021/01/20 10:02:51;;;;;;;;;;;9.80;99.90;;;;;;5136413;27;19916;-86
2021/01/20 10:05:16;;;;;;;;;;;9.90;99.90;;;;;;5119364;27;20436;-87
2021/01/20 10:07:51;;;;;;;;;;;10.10;99.90;;;;;;5119130;27;20094;-87
2021/01/20 10:10:16;;;;;;;;;;;10.30;99.90;;;;;;5118834;27;19907;-86
2021/01/20 10:12:46;;;;;;;;;;;10.50;99.90;;;;;;5112026;27;19911;-86
2021/01/20 10:15:19;;;;;;;;;;;10.60;99.40;;;;;;5120246;27;19922;-87
2021/01/20 10:17:56;;;;;;;;;;;10.60;99.30;;;;;;5136416;27;19907;-87
2021/01/20 10:20:25;;;;;;;;;;;10.50;98.10;;;;;;5135403;27;19918;-87
2021/01/20 10:22:55;;;;;;;;;;;10.40;97.50;;;;;;5132294;27;19915;-87
2021/01/20 10:25:41;;;;;;;;;;;10.40;96.10;;;;;;5122999;27;19907;-87
2021/01/20 10:28:07;;;;;;;;;;;10.30;95.40;;;;;;5139669;27;19915;-87
2021/01/20 10:30:35;;;;;;;;;;;10.40;95.60;;;;;;5137678;27;19937;-86
2021/01/20 10:33:04;;;;;;;;;;;10.40;94.70;;;;;;5141336;27;20089;-87
2021/01/20 10:35:29;;;;;;;;;;;10.40;93.70;;;;;;5144221;27;19911;-86
2021/01/20 10:38:01;;;;;;;;;;;10.30;93.70;;;;;;5159278;27;19921;-87
2021/01/20 10:40:35;;;;;;;;;;;10.30;93.40;;;;;;5159198;27;20001;-87
2021/01/20 10:43:18;;;;;;;;;;;10.10;93.50;;;;;;5155724;27;20013;-86
2021/01/20 10:45:47;;;;;;;;;;;10.10;93.90;;;;;;5136931;27;20346;-86
2021/01/20 10:48:13;;;;;;;;;;;10.00;93.90;;;;;;5137267;27;20470;-88
2021/01/20 10:50:41;;;;;;;;;;;10.00;93.50;;;;;;5140883;27;19954;-86
2021/01/20 10:53:07;;;;;;;;;;;10.00;93.40;;;;;;5158932;27;19913;-86
2021/01/20 10:55:35;;;;;;;;;;;10.00;93.30;;;;;;5141095;27;19954;-86
2021/01/20 10:58:06;;;;;;;;;;;10.00;93.10;;;;;;5135046;27;19907;-86
2021/01/20 11:00:31;;;;;;;;;;;9.90;92.40;;;;;;5140389;27;20284;-87
2021/01/20 11:03:02;;;;;;;;;;;9.90;92.70;;;;;;5135306;27;19937;-87
2021/01/20 11:05:41;;;;;;;;;;;10.00;92.40;;;;;;5135861;27;19907;-87
2021/01/20 11:08:14;;;;;;;;;;;9.90;92.00;;;;;;5157808;27;19929;-85
2021/01/20 11:10:45;;;;;;;;;;;9.90;91.60;;;;;;5158273;27;19907;-87
2021/01/20 11:13:14;;;;;;;;;;;10.00;91.60;;;;;;5158401;27;19911;-85
2021/01/20 11:15:47;;;;;;;;;;;10.00;89.50;;;;;;5137659;27;20001;-85
2021/01/20 11:18:19;;;;;;;;;;;10.10;88.00;;;;;;5136589;27;19907;-87
2021/01/20 11:20:48;;;;;;;;;;;10.20;87.40;;;;;;5139413;27;19956;-87
2021/01/20 11:23:16;;;;;;;;;;;10.30;86.50;;;;;;5157648;27;19915;-87
2021/01/20 11:25:45;;;;;;;;;;;10.40;87.20;;;;;;5139991;27;19907;-87
2021/01/20 11:28:11;;;;;;;;;;;10.50;86.30;;;;;;5139739;27;19983;-87
2021/01/20 11:30:45;;;;;;;;;;;10.60;85.30;;;;;;5157473;27;19911;-86
2021/01/20 11:33:14;;;;;;;;;;;10.70;83.70;;;;;;5139017;27;19907;-87
2021/01/20 11:35:42;;;;;;;;;;;10.70;83.00;;;;;;5138919;27;19975;-88
2021/01/20 11:38:07;;;;;;;;;;;10.60;83.20;;;;;;5139008;27;19907;-86
2021/01/20 11:40:36;;;;;;;;;;;10.50;82.40;;;;;;5158220;27;20005;-86
2021/01/20 11:43:06;;;;;;;;;;;10.50;82.40;;;;;;5133058;27;19972;-86
2021/01/20 11:45:38;;;;;;;;;;;10.50;83.00;;;;;;5133577;27;19959;-87
2021/01/20 11:48:09;;;;;;;;;;;10.50;82.20;;;;;;5139176;27;19907;-86
2021/01/20 11:50:40;;;;;;;;;;;10.50;81.10;;;;;;5138114;27;20364;-85
2021/01/20 11:53:11;;;;;;;;;;;10.50;82.50;;;;;;5158722;27;19907;-86
2021/01/20 11:55:44;;;;;;;;;;;10.50;80.90;;;;;;5159712;27;19918;-86
2021/01/20 11:58:13;;;;;;;;;;;10.50;80.10;;;;;;5178611;27;19910;-87
2021/01/20 12:00:39;;;;;;;;;;;10.50;79.70;;;;;;5159535;27;19906;-86
2021/01/20 12:03:05;;;;;;;;;;;10.50;79.60;;;;;;5096653;28;19920;-86
2021/01/20 12:05:36;;;;;;;;;;;10.60;78.60;;;;;;5096711;28;19908;-86
2021/01/20 12:08:07;;;;;;;;;;;10.70;78.50;;;;;;5092915;28;19961;-87
2021/01/20 12:10:55;;;;;;;;;;;10.80;77.40;;;;;;5112281;28;19912;-86
2021/01/20 12:13:22;;;;;;;;;;;10.90;77.60;;;;;;5096536;28;19908;-86
2021/01/20 12:15:54;;;;;;;;;;;10.90;77.30;;;;;;5096831;28;19912;-86
2021/01/20 12:18:25;;;;;;;;;;;10.90;77.70;;;;;;5109746;28;19908;-86
2021/01/20 12:20:51;;;;;;;;;;;10.80;77.20;;;;;;5097119;28;19914;-86
2021/01/20 12:23:16;;;;;;;;;;;10.70;77.10;;;;;;5091436;28;19924;-86
2021/01/20 12:25:44;;;;;;;;;;;10.70;79.30;;;;;;5095840;28;20331;-86
2021/01/20 12:28:27;;;;;;;;;;;10.70;79.60;;;;;;5108343;28;19943;-86
2021/01/20 12:30:55;;;;;;;;;;;10.60;80.60;;;;;;5113071;28;20044;-85
2021/01/20 12:33:24;;;;;;;;;;;10.40;81.60;;;;;;5108277;27;19929;-85
2021/01/20 12:35:52;;;;;;;;;;;10.30;79.90;;;;;;5158733;27;20335;-85
2021/01/20 12:38:18;;;;;;;;;;;10.30;79.60;;;;;;5171137;27;19942;-85
2021/01/20 12:40:46;;;;;;;;;;;10.20;79.70;;;;;;5158388;27;19929;-86
2021/01/20 12:43:19;;;;;;;;;;;10.30;80.40;;;;;;5158090;27;19923;-86
2021/01/20 12:45:48;;;;;;;;;;;10.20;80.60;;;;;;5173059;27;19914;-87
2021/01/20 12:48:16;;;;;;;;;;;10.20;80.60;;;;;;5176427;27;19929;-86
2021/01/20 12:50:41;;;;;;;;;;;10.10;80.00;;;;;;5158395;27;19911;-86
2021/01/20 12:53:10;;;;;;;;;;;10.00;79.20;;;;;;5151818;27;19907;-87
2021/01/20 12:55:36;;;;;;;;;;;10.00;79.80;;;;;;5141624;27;20364;-86
2021/01/20 12:58:07;;;;;;;;;;;10.00;80.20;;;;;;5155809;27;19915;-86
2021/01/20 13:00:38;;;;;;;;;;;10.00;80.60;;;;;;5155942;27;19911;-86
2021/01/20 13:03:04;;;;;;;;;;;10.00;80.60;;;;;;5137565;27;20286;-86
2021/01/20 13:05:36;;;;;;;;;;;10.00;80.50;;;;;;5150964;27;19952;-84
2021/01/20 13:08:13;;;;;;;;;;;10.00;80.50;;;;;;5135052;27;20014;-86
2021/01/20 13:10:41;;;;;;;;;;;9.90;80.90;;;;;;5138111;27;19914;-84
2021/01/20 13:13:13;;;;;;;;;;;9.90;80.00;;;;;;5137240;27;19956;-85
2021/01/20 13:15:41;;;;;;;;;;;9.90;80.20;;;;;;5133125;27;19907;-85
2021/01/20 13:18:12;;;;;;;;;;;10.00;80.70;;;;;;5132024;27;19929;-86
2021/01/20 13:20:58;;;;;;;;;;;9.90;80.70;;;;;;5153457;27;19907;-85
2021/01/20 13:23:26;;;;;;;;;;;9.90;80.90;;;;;;5131748;27;19957;-85
2021/01/20 13:25:53;;;;;;;;;;;9.90;82.30;;;;;;5137305;27;19936;-86
2021/01/20 13:28:26;;;;;;;;;;;10.00;83.40;;;;;;5134312;27;20004;-86
2021/01/20 13:31:01;;;;;;;;;;;10.00;84.00;;;;;;5138204;27;20434;-86
2021/01/20 13:33:28;;;;;;;;;;;9.90;83.80;;;;;;5137719;27;19907;-85
2021/01/20 13:36:01;;;;;;;;;;;9.90;84.70;;;;;;5131721;27;19997;-85
2021/01/20 13:38:31;;;;;;;;;;;9.80;85.00;;;;;;5137210;27;19907;-86
2021/01/20 13:41:03;;;;;;;;;;;9.80;85.40;;;;;;5120400;27;19915;-85
2021/01/20 13:43:37;;;;;;;;;;;9.80;85.50;;;;;;5137528;27;19915;-86
2021/01/20 13:46:09;;;;;;;;;;;9.70;86.00;;;;;;5137386;27;19911;-86
2021/01/20 13:49:00;;;;;;;;;;;9.80;85.50;;;;;;5155940;27;19954;-85
2021/01/20 13:51:32;;;;;;;;;;;9.80;86.00;;;;;;5137395;27;19907;-86
2021/01/20 13:53:57;;;;;;;;;;;9.80;85.50;;;;;;5134999;27;20287;-86
2021/01/20 13:56:29;;;;;;;;;;;9.90;86.10;;;;;;5176577;27;19925;-85
2021/01/20 13:58:57;;;;;;;;;;;9.80;86.00;;;;;;5157117;27;19915;-85
2021/01/20 14:01:23;;;;;;;;;;;9.90;86.30;;;;;;5162416;27;19911;-86
2021/01/20 14:03:51;;;;;;;;;;;9.90;85.20;;;;;;5156228;27;19929;-86
2021/01/20 14:06:19;;;;;;;;;;;10.00;85.70;;;;;;5161887;27;19910;-85
2021/01/20 14:08:59;;;;;;;;;;;10.00;85.40;;;;;;5179770;27;20372;-85
2021/01/20 14:11:32;;;;;;;;;;;10.00;84.90;;;;;;5161156;27;19907;-86
2021/01/20 14:14:00;;;;;;;;;;;10.10;84.70;;;;;;5180097;27;19950;-86
2021/01/20 14:16:50;;;;;;;;;;;10.00;84.40;;;;;;5156495;27;19907;-85
2021/01/20 14:19:19;;;;;;;;;;;10.00;85.00;;;;;;5161063;27;19910;-85
2021/01/20 14:21:47;;;;;;;;;;;10.00;85.90;;;;;;5160902;27;19907;-85
2021/01/20 14:24:19;;;;;;;;;;;10.00;86.40;;;;;;5160746;27;19907;-84
2021/01/20 14:26:54;;;;;;;;;;;9.90;86.70;;;;;;5179847;27;19928;-85
2021/01/20 14:29:20;;;;;;;;;;;9.90;87.40;;;;;;5156682;27;19914;-86
2021/01/20 14:31:45;;;;;;;;;;;9.90;87.20;;;;;;5180464;27;19907;-86
2021/01/20 14:34:15;;;;;;;;;;;9.90;86.80;;;;;;5180237;27;19963;-86
2021/01/20 14:36:45;;;;;;;;;;;9.90;87.10;;;;;;5174104;27;19914;-86
2021/01/20 14:39:14;;;;;;;;;;;9.90;87.00;;;;;;5161218;27;19914;-87
2021/01/20 14:41:40;;;;;;;;;;;9.90;87.60;;;;;;5153929;27;19953;-85
2021/01/20 14:44:08;;;;;;;;;;;9.90;85.70;;;;;;5161385;27;20358;-86
2021/01/20 14:47:00;;;;;;;;;;;9.90;84.80;;;;;;5178388;27;19946;-85
2021/01/20 14:49:26;;;;;;;;;;;9.90;85.00;;;;;;5159165;27;19955;-87
2021/01/20 14:51:55;;;;;;;;;;;9.90;83.90;;;;;;5157608;27;19915;-85